PWSweather.com
Personal Weather Stations
Station Observations
THRCKWTHR1
Aveley, EssexGB RM154EL

AveleyEssexGB RM154EL

Lat: 51.5000552, Lon: 0.2501753000000235

Elevation: 98.5

Station Type: Oregon Scientific WMR88

www.facebook.com/thurrockweather

High Low Average
Temperature 78.1°F25.6°F 54.9°F12.7°F 65.4°F18.6°F
Dew Point 54.3°F12.4°F 46.7°F8.2°F 49.5°F9.7°F
Winds 9.0 mph -14.5 mph - Calm Calm 1.9 mph 3.1 mph
Wind Gusts 9.0 mph14.5 mph -- 3.6 mph5.8 mph
Humidity 76% 39% 58%
Pressure 30.33 in1027.10 in 30.27 in1025.10 in -
Precipitation 0.00 in0.00 in - -
Hour Temp Dew Point Humidity Winds Wind Gusts Pressure Precip Precip Rate Daily Precip Total
12:00 AM 60.8°F16.0°C 46.8°F8.2°C 60% Calm Calm 1.4 mph2.3 kmh 30.30 in1026.1 mb 0.00 in0.0 mm 0.00 in0.0 mm 0.00 in0.0 mm
12:05 AM 60.6°F15.9°C 47.1°F8.4°C 61% Calm Calm 1.9 mph3.1 kmh 30.30 in1026.1 mb 0.00 in0.0 mm 0.00 in0.0 mm 0.00 in0.0 mm
12:10 AM 60.4°F15.8°C 46.9°F8.3°C 61% Calm Calm 3.0 mph4.8 kmh 30.30 in1026.1 mb 0.00 in0.0 mm 0.00 in0.0 mm 0.00 in0.0 mm
12:15 AM 60.3°F15.7°C 46.8°F8.2°C 61% Calm Calm 3.0 mph4.8 kmh 30.30 in1026.1 mb 0.00 in0.0 mm 0.00 in0.0 mm 0.00 in0.0 mm
12:20 AM 60.1°F15.6°C 47.0°F8.3°C 62% Calm Calm 1.9 mph3.1 kmh 30.30 in1026.1 mb 0.00 in0.0 mm 0.00 in0.0 mm 0.00 in0.0 mm
12:25 AM 59.9°F15.5°C 47.3°F8.5°C 63% Calm Calm 1.9 mph3.1 kmh 30.30 in1026.1 mb 0.00 in0.0 mm 0.00 in0.0 mm 0.00 in0.0 mm
12:30 AM 59.9°F15.5°C 47.3°F8.5°C 63% Calm Calm -- 30.30 in1026.1 mb 0.00 in0.0 mm 0.00 in0.0 mm 0.00 in0.0 mm
12:35 AM 59.5°F15.3°C 46.9°F8.3°C 63% Calm Calm -- 30.30 in1026.1 mb 0.00 in0.0 mm 0.00 in0.0 mm 0.00 in0.0 mm
12:40 AM 59.4°F15.2°C 46.8°F8.2°C 63% Calm Calm 1.4 mph2.3 kmh 30.30 in1026.1 mb 0.00 in0.0 mm 0.00 in0.0 mm 0.00 in0.0 mm
12:45 AM 59.2°F15.1°C 47.0°F8.3°C 64% Calm Calm 1.4 mph2.3 kmh 30.30 in1026.1 mb 0.00 in0.0 mm 0.00 in0.0 mm 0.00 in0.0 mm
12:50 AM 59.0°F15.0°C 46.8°F8.2°C 64% Calm Calm 2.7 mph4.3 kmh 30.30 in1026.1 mb 0.00 in0.0 mm 0.00 in0.0 mm 0.00 in0.0 mm
12:55 AM 58.8°F14.9°C 46.7°F8.2°C 64% 1.4 mph ENE2.3 kmh ENE 2.7 mph4.3 kmh 30.30 in1026.1 mb 0.00 in0.0 mm 0.00 in0.0 mm 0.00 in0.0 mm
01:00 AM 58.8°F14.9°C 47.5°F8.6°C 66% 1.1 mph ENE1.8 kmh ENE 1.9 mph3.1 kmh 30.30 in1026.1 mb 0.00 in0.0 mm 0.00 in0.0 mm 0.00 in0.0 mm
01:05 AM 58.6°F14.8°C 46.9°F8.3°C 65% Calm Calm 1.9 mph3.1 kmh 30.30 in1026.1 mb 0.00 in0.0 mm 0.00 in0.0 mm 0.00 in0.0 mm
01:10 AM 58.5°F14.7°C 46.7°F8.2°C 65% Calm Calm 3.0 mph4.8 kmh 30.30 in1026.1 mb 0.00 in0.0 mm 0.00 in0.0 mm 0.00 in0.0 mm
01:15 AM 58.3°F14.6°C 47.0°F8.3°C 66% 1.1 mph ENE1.8 kmh ENE 3.0 mph4.8 kmh 30.30 in1026.1 mb 0.00 in0.0 mm 0.00 in0.0 mm 0.00 in0.0 mm
01:20 AM 58.3°F14.6°C 47.0°F8.3°C 66% Calm Calm 1.4 mph2.3 kmh 30.30 in1026.1 mb 0.00 in0.0 mm 0.00 in0.0 mm 0.00 in0.0 mm
01:25 AM 57.9°F14.4°C 47.0°F8.3°C 67% Calm Calm 1.4 mph2.3 kmh 30.30 in1026.1 mb 0.00 in0.0 mm 0.00 in0.0 mm 0.00 in0.0 mm
01:30 AM 57.9°F14.4°C 47.0°F8.3°C 67% 1.1 mph ENE1.8 kmh ENE 1.1 mph1.8 kmh 30.30 in1026.1 mb 0.00 in0.0 mm 0.00 in0.0 mm 0.00 in0.0 mm
01:35 AM 57.7°F14.3°C 47.2°F8.4°C 68% Calm Calm 1.1 mph1.8 kmh 30.30 in1026.1 mb 0.00 in0.0 mm 0.00 in0.0 mm 0.00 in0.0 mm
01:40 AM 57.6°F14.2°C 47.1°F8.4°C 68% Calm Calm -- 30.30 in1026.1 mb 0.00 in0.0 mm 0.00 in0.0 mm 0.00 in0.0 mm
01:45 AM 57.4°F14.1°C 47.3°F8.5°C 69% Calm Calm -- 30.30 in1026.1 mb 0.00 in0.0 mm 0.00 in0.0 mm 0.00 in0.0 mm
01:50 AM 57.2°F14.0°C 47.1°F8.4°C 69% Calm Calm -- 30.30 in1026.1 mb 0.00 in0.0 mm 0.00 in0.0 mm 0.00 in0.0 mm
01:55 AM 57.2°F14.0°C 46.7°F8.2°C 68% Calm Calm -- 30.30 in1026.1 mb 0.00 in0.0 mm 0.00 in0.0 mm 0.00 in0.0 mm
02:00 AM 57.0°F13.9°C 47.3°F8.5°C 70% Calm Calm -- 30.30 in1026.1 mb 0.00 in0.0 mm 0.00 in0.0 mm 0.00 in0.0 mm
02:05 AM 56.8°F13.8°C 47.2°F8.4°C 70% Calm Calm -- 30.30 in1026.1 mb 0.00 in0.0 mm 0.00 in0.0 mm 0.00 in0.0 mm
02:10 AM 56.7°F13.7°C 47.4°F8.6°C 71% Calm Calm -- 30.30 in1026.1 mb 0.00 in0.0 mm 0.00 in0.0 mm 0.00 in0.0 mm
02:15 AM 56.7°F13.7°C 47.4°F8.6°C 71% Calm Calm -- 30.30 in1026.1 mb 0.00 in0.0 mm 0.00 in0.0 mm 0.00 in0.0 mm
02:20 AM 56.5°F13.6°C 47.2°F8.4°C 71% Calm Calm -- 30.30 in1026.1 mb 0.00 in0.0 mm 0.00 in0.0 mm 0.00 in0.0 mm
02:25 AM 56.3°F13.5°C 47.0°F8.3°C 71% Calm Calm -- 30.30 in1026.1 mb 0.00 in0.0 mm 0.00 in0.0 mm 0.00 in0.0 mm
02:30 AM 56.3°F13.5°C 47.0°F8.3°C 71% Calm Calm -- 30.30 in1026.1 mb 0.00 in0.0 mm 0.00 in0.0 mm 0.00 in0.0 mm
02:35 AM 56.1°F13.4°C 46.8°F8.2°C 71% 1.6 mph ENE2.6 kmh ENE 1.6 mph2.6 kmh 30.30 in1026.1 mb 0.00 in0.0 mm 0.00 in0.0 mm 0.00 in0.0 mm
02:40 AM 55.9°F13.3°C 47.0°F8.3°C 72% Calm Calm 1.6 mph2.6 kmh 30.30 in1026.1 mb 0.00 in0.0 mm 0.00 in0.0 mm 0.00 in0.0 mm
02:45 AM 55.9°F13.3°C 47.0°F8.3°C 72% Calm Calm 1.1 mph1.8 kmh 30.27 in1025.1 mb 0.00 in0.0 mm 0.00 in0.0 mm 0.00 in0.0 mm
02:50 AM 55.9°F13.3°C 47.0°F8.3°C 72% Calm Calm -- 30.27 in1025.1 mb 0.00 in0.0 mm 0.00 in0.0 mm 0.00 in0.0 mm
02:55 AM 55.9°F13.3°C 47.0°F8.3°C 72% Calm Calm -- 30.27 in1025.1 mb 0.00 in0.0 mm 0.00 in0.0 mm 0.00 in0.0 mm
03:00 AM 55.9°F13.3°C 47.0°F8.3°C 72% Calm Calm -- 30.27 in1025.1 mb 0.00 in0.0 mm 0.00 in0.0 mm 0.00 in0.0 mm
03:05 AM 55.9°F13.3°C 47.0°F8.3°C 72% Calm Calm 2.7 mph4.3 kmh 30.27 in1025.1 mb 0.00 in0.0 mm 0.00 in0.0 mm 0.00 in0.0 mm
03:10 AM 55.8°F13.2°C 46.9°F8.3°C 72% Calm Calm 2.7 mph4.3 kmh 30.27 in1025.1 mb 0.00 in0.0 mm 0.00 in0.0 mm 0.00 in0.0 mm
03:15 AM 55.8°F13.2°C 47.2°F8.4°C 73% Calm Calm 1.4 mph2.3 kmh 30.27 in1025.1 mb 0.00 in0.0 mm 0.00 in0.0 mm 0.00 in0.0 mm
03:20 AM 55.6°F13.1°C 47.1°F8.4°C 73% Calm Calm 1.4 mph2.3 kmh 30.27 in1025.1 mb 0.00 in0.0 mm 0.00 in0.0 mm 0.00 in0.0 mm
03:25 AM 55.6°F13.1°C 47.1°F8.4°C 73% Calm Calm -- 30.27 in1025.1 mb 0.00 in0.0 mm 0.00 in0.0 mm 0.00 in0.0 mm
03:30 AM 55.4°F13.0°C 46.9°F8.3°C 73% Calm Calm -- 30.27 in1025.1 mb 0.00 in0.0 mm 0.00 in0.0 mm 0.00 in0.0 mm
03:35 AM 55.4°F13.0°C 46.9°F8.3°C 73% Calm Calm -- 30.27 in1025.1 mb 0.00 in0.0 mm 0.00 in0.0 mm 0.00 in0.0 mm
03:40 AM 55.2°F12.9°C 47.1°F8.4°C 74% Calm Calm -- 30.27 in1025.1 mb 0.00 in0.0 mm 0.00 in0.0 mm 0.00 in0.0 mm
03:45 AM 55.2°F12.9°C 47.1°F8.4°C 74% Calm Calm -- 30.27 in1025.1 mb 0.00 in0.0 mm 0.00 in0.0 mm 0.00 in0.0 mm
03:50 AM 55.2°F12.9°C 47.1°F8.4°C 74% Calm Calm -- 30.27 in1025.1 mb 0.00 in0.0 mm 0.00 in0.0 mm 0.00 in0.0 mm
03:55 AM 55.0°F12.8°C 46.9°F8.3°C 74% Calm Calm -- 30.27 in1025.1 mb 0.00 in0.0 mm 0.00 in0.0 mm 0.00 in0.0 mm
04:00 AM 55.0°F12.8°C 47.3°F8.5°C 75% Calm Calm -- 30.27 in1025.1 mb 0.00 in0.0 mm 0.00 in0.0 mm 0.00 in0.0 mm
04:05 AM 55.0°F12.8°C 47.3°F8.5°C 75% Calm Calm -- 30.27 in1025.1 mb 0.00 in0.0 mm 0.00 in0.0 mm 0.00 in0.0 mm
04:10 AM 54.9°F12.7°C 47.1°F8.4°C 75% Calm Calm -- 30.27 in1025.1 mb 0.00 in0.0 mm 0.00 in0.0 mm 0.00 in0.0 mm
04:15 AM 54.9°F12.7°C 47.4°F8.6°C 76% Calm Calm -- 30.27 in1025.1 mb 0.00 in0.0 mm 0.00 in0.0 mm 0.00 in0.0 mm
04:20 AM 54.9°F12.7°C 47.4°F8.6°C 76% Calm Calm -- 30.27 in1025.1 mb 0.00 in0.0 mm 0.00 in0.0 mm 0.00 in0.0 mm
04:25 AM 54.9°F12.7°C 47.4°F8.6°C 76% Calm Calm -- 30.27 in1025.1 mb 0.00 in0.0 mm 0.00 in0.0 mm 0.00 in0.0 mm
04:30 AM 54.9°F12.7°C 47.4°F8.6°C 76% Calm Calm -- 30.30 in1026.1 mb 0.00 in0.0 mm 0.00 in0.0 mm 0.00 in0.0 mm
04:35 AM 54.9°F12.7°C 47.4°F8.6°C 76% Calm Calm -- 30.30 in1026.1 mb 0.00 in0.0 mm 0.00 in0.0 mm 0.00 in0.0 mm
04:40 AM 55.2°F12.9°C 47.8°F8.8°C 76% Calm Calm -- 30.30 in1026.1 mb 0.00 in0.0 mm 0.00 in0.0 mm 0.00 in0.0 mm
04:45 AM 55.4°F13.0°C 47.6°F8.7°C 75% Calm Calm -- 30.30 in1026.1 mb 0.00 in0.0 mm 0.00 in0.0 mm 0.00 in0.0 mm
04:50 AM 55.4°F13.0°C 47.6°F8.7°C 75% Calm Calm -- 30.30 in1026.1 mb 0.00 in0.0 mm 0.00 in0.0 mm 0.00 in0.0 mm
04:55 AM 55.8°F13.2°C 48.3°F9.1°C 76% Calm Calm -- 30.30 in1026.1 mb 0.00 in0.0 mm 0.00 in0.0 mm 0.00 in0.0 mm
05:00 AM 55.9°F13.3°C 48.5°F9.2°C 76% Calm Calm -- 30.30 in1026.1 mb 0.00 in0.0 mm 0.00 in0.0 mm 0.00 in0.0 mm
05:05 AM 56.3°F13.5°C 48.8°F9.3°C 76% Calm Calm -- 30.30 in1026.1 mb 0.00 in0.0 mm 0.00 in0.0 mm 0.00 in0.0 mm
05:10 AM 56.8°F13.8°C 49.4°F9.7°C 76% Calm Calm -- 30.30 in1026.1 mb 0.00 in0.0 mm 0.00 in0.0 mm 0.00 in0.0 mm
05:15 AM 57.0°F13.9°C 49.5°F9.7°C 76% Calm Calm -- 30.30 in1026.1 mb 0.00 in0.0 mm 0.00 in0.0 mm 0.00 in0.0 mm
05:20 AM 57.4°F14.1°C 49.5°F9.7°C 75% Calm Calm -- 30.30 in1026.1 mb 0.00 in0.0 mm 0.00 in0.0 mm 0.00 in0.0 mm
05:25 AM 57.7°F14.3°C 49.9°F9.9°C 75% Calm Calm -- 30.30 in1026.1 mb 0.00 in0.0 mm 0.00 in0.0 mm 0.00 in0.0 mm
05:30 AM 57.9°F14.4°C 49.7°F9.8°C 74% Calm Calm -- 30.30 in1026.1 mb 0.00 in0.0 mm 0.00 in0.0 mm 0.00 in0.0 mm
05:35 AM 58.1°F14.5°C 49.9°F9.9°C 74% Calm Calm -- 30.30 in1026.1 mb 0.00 in0.0 mm 0.00 in0.0 mm 0.00 in0.0 mm
05:40 AM 58.3°F14.6°C 49.7°F9.8°C 73% Calm Calm -- 30.30 in1026.1 mb 0.00 in0.0 mm 0.00 in0.0 mm 0.00 in0.0 mm
05:45 AM 58.6°F14.8°C 50.0°F10.0°C 73% Calm Calm -- 30.30 in1026.1 mb 0.00 in0.0 mm 0.00 in0.0 mm 0.00 in0.0 mm
05:50 AM 59.2°F15.1°C 50.5°F10.3°C 73% Calm Calm 1.1 mph1.8 kmh 30.30 in1026.1 mb 0.00 in0.0 mm 0.00 in0.0 mm 0.00 in0.0 mm
05:55 AM 59.7°F15.4°C 50.7°F10.4°C 72% Calm Calm 1.1 mph1.8 kmh 30.30 in1026.1 mb 0.00 in0.0 mm 0.00 in0.0 mm 0.00 in0.0 mm
06:00 AM 59.9°F15.5°C 50.8°F10.4°C 72% Calm Calm -- 30.30 in1026.1 mb 0.00 in0.0 mm 0.00 in0.0 mm 0.00 in0.0 mm
06:05 AM 60.3°F15.7°C 51.2°F10.7°C 72% Calm Calm -- 30.30 in1026.1 mb 0.00 in0.0 mm 0.00 in0.0 mm 0.00 in0.0 mm
06:10 AM 61.0°F16.1°C 51.9°F11.1°C 72% Calm Calm -- 30.30 in1026.1 mb 0.00 in0.0 mm 0.00 in0.0 mm 0.00 in0.0 mm
06:15 AM 61.2°F16.2°C 51.7°F10.9°C 71% Calm Calm 1.1 mph1.8 kmh 30.30 in1026.1 mb 0.00 in0.0 mm 0.00 in0.0 mm 0.00 in0.0 mm
06:20 AM 61.9°F16.6°C 52.4°F11.3°C 71% Calm Calm 1.1 mph1.8 kmh 30.30 in1026.1 mb 0.00 in0.0 mm 0.00 in0.0 mm 0.00 in0.0 mm
06:25 AM 62.2°F16.8°C 52.3°F11.3°C 70% Calm Calm 1.1 mph1.8 kmh 30.30 in1026.1 mb 0.00 in0.0 mm 0.00 in0.0 mm 0.00 in0.0 mm
06:30 AM 62.6°F17.0°C 52.3°F11.3°C 69% Calm Calm 1.1 mph1.8 kmh 30.30 in1026.1 mb 0.00 in0.0 mm 0.00 in0.0 mm 0.00 in0.0 mm
06:35 AM 63.0°F17.2°C 52.6°F11.4°C 69% Calm Calm -- 30.30 in1026.1 mb 0.00 in0.0 mm 0.00 in0.0 mm 0.00 in0.0 mm
06:40 AM 63.5°F17.5°C 52.7°F11.5°C 68% 3.5 mph ENE5.6 kmh ENE 3.5 mph5.6 kmh 30.30 in1026.1 mb 0.00 in0.0 mm 0.00 in0.0 mm 0.00 in0.0 mm
06:45 AM 63.9°F17.7°C 53.1°F11.7°C 68% Calm Calm 3.5 mph5.6 kmh 30.30 in1026.1 mb 0.00 in0.0 mm 0.00 in0.0 mm 0.00 in0.0 mm
06:50 AM 64.2°F17.9°C 52.6°F11.4°C 66% Calm Calm 3.5 mph5.6 kmh 30.30 in1026.1 mb 0.00 in0.0 mm 0.00 in0.0 mm 0.00 in0.0 mm
06:55 AM 64.6°F18.1°C 53.0°F11.7°C 66% 1.1 mph E1.8 kmh E 1.1 mph1.8 kmh 30.30 in1026.1 mb 0.00 in0.0 mm 0.00 in0.0 mm 0.00 in0.0 mm
07:00 AM 64.8°F18.2°C 52.7°F11.5°C 65% 1.9 mph E3.1 kmh E 1.9 mph3.1 kmh 30.30 in1026.1 mb 0.00 in0.0 mm 0.00 in0.0 mm 0.00 in0.0 mm
07:05 AM 65.1°F18.4°C 53.1°F11.7°C 65% 1.9 mph E3.1 kmh E 1.9 mph3.1 kmh 30.30 in1026.1 mb 0.00 in0.0 mm 0.00 in0.0 mm 0.00 in0.0 mm
07:10 AM 65.3°F18.5°C 53.2°F11.8°C 65% Calm Calm 1.9 mph3.1 kmh 30.30 in1026.1 mb 0.00 in0.0 mm 0.00 in0.0 mm 0.00 in0.0 mm
07:15 AM 66.4°F19.1°C 54.3°F12.4°C 65% 1.9 mph SE3.1 kmh SE 3.8 mph6.1 kmh 30.30 in1026.1 mb 0.00 in0.0 mm 0.00 in0.0 mm 0.00 in0.0 mm
07:20 AM 66.6°F19.2°C 53.6°F12.0°C 63% 1.6 mph SE2.6 kmh SE 3.8 mph6.1 kmh 30.30 in1026.1 mb 0.00 in0.0 mm 0.00 in0.0 mm 0.00 in0.0 mm
07:25 AM 66.4°F19.1°C 53.0°F11.7°C 62% Calm Calm 3.3 mph5.3 kmh 30.30 in1026.1 mb 0.00 in0.0 mm 0.00 in0.0 mm 0.00 in0.0 mm
07:30 AM 66.7°F19.3°C 53.7°F12.1°C 63% 3.0 mph NE4.8 kmh NE 3.0 mph4.8 kmh 30.30 in1026.1 mb 0.00 in0.0 mm 0.00 in0.0 mm 0.00 in0.0 mm
07:35 AM 67.1°F19.5°C 53.6°F12.0°C 62% Calm Calm 3.3 mph5.3 kmh 30.30 in1026.1 mb 0.00 in0.0 mm 0.00 in0.0 mm 0.00 in0.0 mm
07:40 AM 67.5°F19.7°C 54.0°F12.2°C 62% 1.4 mph NE2.3 kmh NE 4.1 mph6.6 kmh 30.30 in1026.1 mb 0.00 in0.0 mm 0.00 in0.0 mm 0.00 in0.0 mm
07:45 AM 67.6°F19.8°C 53.7°F12.1°C 61% Calm Calm 4.1 mph6.6 kmh 30.30 in1026.1 mb 0.00 in0.0 mm 0.00 in0.0 mm 0.00 in0.0 mm
07:50 AM 68.0°F20.0°C 53.6°F12.0°C 60% 1.9 mph E3.1 kmh E 3.5 mph5.6 kmh 30.30 in1026.1 mb 0.00 in0.0 mm 0.00 in0.0 mm 0.00 in0.0 mm
07:55 AM 68.0°F20.0°C 53.1°F11.7°C 59% 1.6 mph NE2.6 kmh NE 3.5 mph5.6 kmh 30.30 in1026.1 mb 0.00 in0.0 mm 0.00 in0.0 mm 0.00 in0.0 mm
08:00 AM 68.0°F20.0°C 53.1°F11.7°C 59% 4.9 mph NE7.9 kmh NE 4.9 mph7.9 kmh 30.30 in1026.1 mb 0.00 in0.0 mm 0.00 in0.0 mm 0.00 in0.0 mm
08:05 AM 68.4°F20.2°C 53.5°F11.9°C 59% 1.1 mph E1.8 kmh E 4.9 mph7.9 kmh 30.30 in1026.1 mb 0.00 in0.0 mm 0.00 in0.0 mm 0.00 in0.0 mm
08:10 AM 68.7°F20.4°C 53.8°F12.1°C 59% Calm Calm 4.9 mph7.9 kmh 30.30 in1026.1 mb 0.00 in0.0 mm 0.00 in0.0 mm 0.00 in0.0 mm
08:15 AM 68.9°F20.5°C 53.5°F11.9°C 58% 1.9 mph ESE3.1 kmh ESE 4.6 mph7.4 kmh 30.33 in1027.1 mb 0.00 in0.0 mm 0.00 in0.0 mm 0.00 in0.0 mm
08:20 AM 69.1°F20.6°C 53.2°F11.8°C 57% 4.9 mph E7.9 kmh E 4.9 mph7.9 kmh 30.33 in1027.1 mb 0.00 in0.0 mm 0.00 in0.0 mm 0.00 in0.0 mm
08:25 AM 68.9°F20.5°C 52.6°F11.4°C 56% 1.4 mph NE2.3 kmh NE 4.9 mph7.9 kmh 30.33 in1027.1 mb 0.00 in0.0 mm 0.00 in0.0 mm 0.00 in0.0 mm
08:30 AM 69.1°F20.6°C 53.2°F11.8°C 57% 3.0 mph NE4.8 kmh NE 4.1 mph6.6 kmh 30.30 in1026.1 mb 0.00 in0.0 mm 0.00 in0.0 mm 0.00 in0.0 mm
08:35 AM 69.4°F20.8°C 52.6°F11.4°C 55% 3.3 mph E5.3 kmh E 3.5 mph5.6 kmh 30.30 in1026.1 mb 0.00 in0.0 mm 0.00 in0.0 mm 0.00 in0.0 mm
08:40 AM 69.6°F20.9°C 52.7°F11.5°C 55% 2.5 mph E4.0 kmh E 3.5 mph5.6 kmh 30.30 in1026.1 mb 0.00 in0.0 mm 0.00 in0.0 mm 0.00 in0.0 mm
08:45 AM 69.4°F20.8°C 52.1°F11.2°C 54% 2.7 mph NE4.3 kmh NE 3.8 mph6.1 kmh 30.30 in1026.1 mb 0.00 in0.0 mm 0.00 in0.0 mm 0.00 in0.0 mm
08:50 AM 69.6°F20.9°C 52.2°F11.2°C 54% 1.6 mph NE2.6 kmh NE 4.6 mph7.4 kmh 30.30 in1026.1 mb 0.00 in0.0 mm 0.00 in0.0 mm 0.00 in0.0 mm
08:55 AM 69.6°F20.9°C 52.2°F11.2°C 54% 1.4 mph NE2.3 kmh NE 4.9 mph7.9 kmh 30.30 in1026.1 mb 0.00 in0.0 mm 0.00 in0.0 mm 0.00 in0.0 mm
09:00 AM 70.2°F21.2°C 52.2°F11.2°C 53% 1.1 mph ENE1.8 kmh ENE 4.9 mph7.9 kmh 30.30 in1026.1 mb 0.00 in0.0 mm 0.00 in0.0 mm 0.00 in0.0 mm
09:05 AM 70.5°F21.4°C 53.1°F11.7°C 54% 1.6 mph E2.6 kmh E 4.9 mph7.9 kmh 30.30 in1026.1 mb 0.00 in0.0 mm 0.00 in0.0 mm 0.00 in0.0 mm
09:10 AM 71.1°F21.7°C 53.1°F11.7°C 53% 4.9 mph E7.9 kmh E 4.9 mph7.9 kmh 30.30 in1026.1 mb 0.00 in0.0 mm 0.00 in0.0 mm 0.00 in0.0 mm
09:15 AM 71.6°F22.0°C 53.6°F12.0°C 53% 1.9 mph SE3.1 kmh SE 4.9 mph7.9 kmh 30.30 in1026.1 mb 0.00 in0.0 mm 0.00 in0.0 mm 0.00 in0.0 mm
09:20 AM 72.1°F22.3°C 53.5°F11.9°C 52% 1.6 mph SE2.6 kmh SE 4.9 mph7.9 kmh 30.30 in1026.1 mb 0.00 in0.0 mm 0.00 in0.0 mm 0.00 in0.0 mm
09:25 AM 72.3°F22.4°C 53.7°F12.1°C 52% 3.0 mph SE4.8 kmh SE 4.6 mph7.4 kmh 30.30 in1026.1 mb 0.00 in0.0 mm 0.00 in0.0 mm 0.00 in0.0 mm
09:30 AM 72.7°F22.6°C 53.5°F11.9°C 51% 2.5 mph SE4.0 kmh SE 4.6 mph7.4 kmh 30.30 in1026.1 mb 0.00 in0.0 mm 0.00 in0.0 mm 0.00 in0.0 mm
09:35 AM 72.0°F22.2°C 52.8°F11.6°C 51% 1.4 mph E2.3 kmh E 4.6 mph7.4 kmh 30.30 in1026.1 mb 0.00 in0.0 mm 0.00 in0.0 mm 0.00 in0.0 mm
09:40 AM 72.5°F22.5°C 53.3°F11.8°C 51% 2.5 mph ENE4.0 kmh ENE 4.6 mph7.4 kmh 30.30 in1026.1 mb 0.00 in0.0 mm 0.00 in0.0 mm 0.00 in0.0 mm
09:45 AM 72.5°F22.5°C 52.8°F11.6°C 50% 4.4 mph ENE7.1 kmh ENE 7.1 mph11.4 kmh 30.30 in1026.1 mb 0.00 in0.0 mm 0.00 in0.0 mm 0.00 in0.0 mm
09:50 AM 72.5°F22.5°C 52.2°F11.2°C 49% 3.3 mph NE5.3 kmh NE 7.1 mph11.4 kmh 30.30 in1026.1 mb 0.00 in0.0 mm 0.00 in0.0 mm 0.00 in0.0 mm
09:55 AM 72.7°F22.6°C 52.4°F11.3°C 49% 3.8 mph E6.1 kmh E 4.6 mph7.4 kmh 30.30 in1026.1 mb 0.00 in0.0 mm 0.00 in0.0 mm 0.00 in0.0 mm
10:00 AM 72.3°F22.4°C 51.5°F10.8°C 48% 4.9 mph E7.9 kmh E 4.9 mph7.9 kmh 30.30 in1026.1 mb 0.00 in0.0 mm 0.00 in0.0 mm 0.00 in0.0 mm
10:05 AM 72.1°F22.3°C 50.8°F10.4°C 47% Calm Calm 4.9 mph7.9 kmh 30.30 in1026.1 mb 0.00 in0.0 mm 0.00 in0.0 mm 0.00 in0.0 mm
10:10 AM 72.0°F22.2°C 50.6°F10.3°C 47% 3.0 mph NE4.8 kmh NE 4.9 mph7.9 kmh 30.30 in1026.1 mb 0.00 in0.0 mm 0.00 in0.0 mm 0.00 in0.0 mm
12:00 PM 77.4°F25.2°C 52.5°F11.4°C 42% 5.7 mph NE9.2 kmh NE 5.7 mph9.2 kmh 30.30 in1026.1 mb 0.00 in0.0 mm 0.00 in0.0 mm 0.00 in0.0 mm
12:05 PM 76.5°F24.7°C 51.0°F10.6°C 41% 2.5 mph ENE4.0 kmh ENE 5.7 mph9.2 kmh 30.30 in1026.1 mb 0.00 in0.0 mm 0.00 in0.0 mm 0.00 in0.0 mm
12:10 PM 76.6°F24.8°C 51.2°F10.7°C 41% 2.5 mph ENE4.0 kmh ENE 5.7 mph9.2 kmh 30.30 in1026.1 mb 0.00 in0.0 mm 0.00 in0.0 mm 0.00 in0.0 mm
12:15 PM 76.6°F24.8°C 51.2°F10.7°C 41% Calm Calm 3.0 mph4.8 kmh 30.30 in1026.1 mb 0.00 in0.0 mm 0.00 in0.0 mm 0.00 in0.0 mm
12:20 PM 77.0°F25.0°C 50.8°F10.4°C 40% 4.1 mph ESE6.6 kmh ESE 4.1 mph6.6 kmh 30.30 in1026.1 mb 0.00 in0.0 mm 0.00 in0.0 mm 0.00 in0.0 mm
12:25 PM 77.0°F25.0°C 51.5°F10.8°C 41% 1.6 mph ESE2.6 kmh ESE 4.1 mph6.6 kmh 30.30 in1026.1 mb 0.00 in0.0 mm 0.00 in0.0 mm 0.00 in0.0 mm
12:30 PM 77.7°F25.4°C 52.1°F11.2°C 41% 3.0 mph E4.8 kmh E 4.1 mph6.6 kmh 30.30 in1026.1 mb 0.00 in0.0 mm 0.00 in0.0 mm 0.00 in0.0 mm
12:35 PM 77.4°F25.2°C 51.1°F10.6°C 40% 4.9 mph ENE7.9 kmh ENE 6.0 mph9.7 kmh 30.30 in1026.1 mb 0.00 in0.0 mm 0.00 in0.0 mm 0.00 in0.0 mm
12:40 PM 76.8°F24.9°C 50.7°F10.4°C 40% 3.0 mph ENE4.8 kmh ENE 6.0 mph9.7 kmh 30.30 in1026.1 mb 0.00 in0.0 mm 0.00 in0.0 mm 0.00 in0.0 mm
12:45 PM 76.3°F24.6°C 49.5°F9.7°C 39% 4.1 mph N6.6 kmh N 6.0 mph9.7 kmh 30.30 in1026.1 mb 0.00 in0.0 mm 0.00 in0.0 mm 0.00 in0.0 mm
12:50 PM 76.3°F24.6°C 49.5°F9.7°C 39% 4.6 mph NNW7.4 kmh NNW 6.0 mph9.7 kmh 30.30 in1026.1 mb 0.00 in0.0 mm 0.00 in0.0 mm 0.00 in0.0 mm
12:55 PM 77.0°F25.0°C 50.8°F10.4°C 40% 2.5 mph NW4.0 kmh NW 4.6 mph7.4 kmh 30.30 in1026.1 mb 0.00 in0.0 mm 0.00 in0.0 mm 0.00 in0.0 mm
01:00 PM 77.7°F25.4°C 51.5°F10.8°C 40% 2.5 mph NE4.0 kmh NE 4.6 mph7.4 kmh 30.30 in1026.1 mb 0.00 in0.0 mm 0.00 in0.0 mm 0.00 in0.0 mm
01:05 PM 78.1°F25.6°C 51.8°F11.0°C 40% 2.7 mph E4.3 kmh E 3.8 mph6.1 kmh 30.30 in1026.1 mb 0.00 in0.0 mm 0.00 in0.0 mm 0.00 in0.0 mm
01:10 PM 77.4°F25.2°C 51.1°F10.6°C 40% Calm Calm 4.1 mph6.6 kmh 30.30 in1026.1 mb 0.00 in0.0 mm 0.00 in0.0 mm 0.00 in0.0 mm
01:15 PM 77.2°F25.1°C 51.0°F10.6°C 40% 4.1 mph ESE6.6 kmh ESE 4.1 mph6.6 kmh 30.30 in1026.1 mb 0.00 in0.0 mm 0.00 in0.0 mm 0.00 in0.0 mm
01:20 PM 77.0°F25.0°C 50.1°F10.1°C 39% 3.3 mph ENE5.3 kmh ENE 4.4 mph7.1 kmh 30.30 in1026.1 mb 0.00 in0.0 mm 0.00 in0.0 mm 0.00 in0.0 mm
01:25 PM 76.8°F24.9°C 50.7°F10.4°C 40% Calm Calm 4.4 mph7.1 kmh 30.30 in1026.1 mb 0.00 in0.0 mm 0.00 in0.0 mm 0.00 in0.0 mm
01:30 PM 76.6°F24.8°C 50.5°F10.3°C 40% 2.7 mph E4.3 kmh E 4.4 mph7.1 kmh 30.30 in1026.1 mb 0.00 in0.0 mm 0.00 in0.0 mm 0.00 in0.0 mm
01:35 PM 76.5°F24.7°C 50.3°F10.2°C 40% 3.3 mph SE5.3 kmh SE 4.6 mph7.4 kmh 30.30 in1026.1 mb 0.00 in0.0 mm 0.00 in0.0 mm 0.00 in0.0 mm
01:40 PM 76.1°F24.5°C 50.0°F10.0°C 40% 4.9 mph S7.9 kmh S 6.5 mph10.5 kmh 30.30 in1026.1 mb 0.00 in0.0 mm 0.00 in0.0 mm 0.00 in0.0 mm
01:45 PM 75.4°F24.1°C 49.4°F9.7°C 40% 4.1 mph SE6.6 kmh SE 6.5 mph10.5 kmh 30.30 in1026.1 mb 0.00 in0.0 mm 0.00 in0.0 mm 0.00 in0.0 mm
01:50 PM 75.4°F24.1°C 49.4°F9.7°C 40% 7.6 mph SE12.2 kmh SE 7.6 mph12.2 kmh 30.30 in1026.1 mb 0.00 in0.0 mm 0.00 in0.0 mm 0.00 in0.0 mm
01:55 PM 75.4°F24.1°C 49.4°F9.7°C 40% 1.9 mph SSE3.1 kmh SSE 7.6 mph12.2 kmh 30.30 in1026.1 mb 0.00 in0.0 mm 0.00 in0.0 mm 0.00 in0.0 mm
02:00 PM 75.0°F23.9°C 49.1°F9.5°C 40% 3.5 mph SE5.6 kmh SE 7.6 mph12.2 kmh 30.30 in1026.1 mb 0.00 in0.0 mm 0.00 in0.0 mm 0.00 in0.0 mm
02:05 PM 74.8°F23.8°C 48.9°F9.4°C 40% 3.8 mph SE6.1 kmh SE 3.8 mph6.1 kmh 30.30 in1026.1 mb 0.00 in0.0 mm 0.00 in0.0 mm 0.00 in0.0 mm
02:10 PM 74.7°F23.7°C 49.4°F9.7°C 41% 4.6 mph SE7.4 kmh SE 7.4 mph11.9 kmh 30.30 in1026.1 mb 0.00 in0.0 mm 0.00 in0.0 mm 0.00 in0.0 mm
02:15 PM 74.7°F23.7°C 49.4°F9.7°C 41% 1.6 mph SE2.6 kmh SE 7.4 mph11.9 kmh 30.30 in1026.1 mb 0.00 in0.0 mm 0.00 in0.0 mm 0.00 in0.0 mm
02:20 PM 74.5°F23.6°C 48.6°F9.2°C 40% 3.0 mph ESE4.8 kmh ESE 7.4 mph11.9 kmh 30.30 in1026.1 mb 0.00 in0.0 mm 0.00 in0.0 mm 0.00 in0.0 mm
02:25 PM 74.3°F23.5°C 48.4°F9.1°C 40% 5.2 mph ESE8.4 kmh ESE 7.6 mph12.2 kmh 30.30 in1026.1 mb 0.00 in0.0 mm 0.00 in0.0 mm 0.00 in0.0 mm
02:30 PM 74.1°F23.4°C 48.2°F9.0°C 40% 1.4 mph SE2.3 kmh SE 9.0 mph14.5 kmh 30.30 in1026.1 mb 0.00 in0.0 mm 0.00 in0.0 mm 0.00 in0.0 mm
02:35 PM 74.3°F23.5°C 49.1°F9.5°C 41% 3.3 mph SSE5.3 kmh SSE 9.0 mph14.5 kmh 30.27 in1025.1 mb 0.00 in0.0 mm 0.00 in0.0 mm 0.00 in0.0 mm
02:40 PM 73.9°F23.3°C 48.7°F9.3°C 41% 3.3 mph SSE5.3 kmh SSE 5.2 mph8.4 kmh 30.27 in1025.1 mb 0.00 in0.0 mm 0.00 in0.0 mm 0.00 in0.0 mm
02:45 PM 73.8°F23.2°C 48.6°F9.2°C 41% 9.0 mph SE14.5 kmh SE 9.0 mph14.5 kmh 30.27 in1025.1 mb 0.00 in0.0 mm 0.00 in0.0 mm 0.00 in0.0 mm
02:50 PM 73.9°F23.3°C 48.7°F9.3°C 41% 7.6 mph SE12.2 kmh SE 9.0 mph14.5 kmh 30.30 in1026.1 mb 0.00 in0.0 mm 0.00 in0.0 mm 0.00 in0.0 mm
02:55 PM 73.9°F23.3°C 48.7°F9.3°C 41% 3.8 mph SE6.1 kmh SE 9.0 mph14.5 kmh 30.30 in1026.1 mb 0.00 in0.0 mm 0.00 in0.0 mm 0.00 in0.0 mm
03:00 PM 73.6°F23.1°C 48.4°F9.1°C 41% 1.9 mph SE3.1 kmh SE 6.0 mph9.7 kmh 30.30 in1026.1 mb 0.00 in0.0 mm 0.00 in0.0 mm 0.00 in0.0 mm
03:05 PM 73.6°F23.1°C 48.4°F9.1°C 41% 1.1 mph S1.8 kmh S 5.7 mph9.2 kmh 30.27 in1025.1 mb 0.00 in0.0 mm 0.00 in0.0 mm 0.00 in0.0 mm
03:10 PM 73.6°F23.1°C 48.4°F9.1°C 41% 4.1 mph SE6.6 kmh SE 5.7 mph9.2 kmh 30.27 in1025.1 mb 0.00 in0.0 mm 0.00 in0.0 mm 0.00 in0.0 mm
03:15 PM 73.8°F23.2°C 49.2°F9.6°C 42% 3.0 mph SE4.8 kmh SE 6.8 mph10.9 kmh 30.27 in1025.1 mb 0.00 in0.0 mm 0.00 in0.0 mm 0.00 in0.0 mm
03:20 PM 73.8°F23.2°C 49.2°F9.6°C 42% 6.8 mph SE10.9 kmh SE 6.8 mph10.9 kmh 30.27 in1025.1 mb 0.00 in0.0 mm 0.00 in0.0 mm 0.00 in0.0 mm
03:25 PM 73.6°F23.1°C 49.1°F9.5°C 42% 3.3 mph SE5.3 kmh SE 6.8 mph10.9 kmh 30.27 in1025.1 mb 0.00 in0.0 mm 0.00 in0.0 mm 0.00 in0.0 mm
03:30 PM 73.4°F23.0°C 48.9°F9.4°C 42% 4.4 mph SE7.1 kmh SE 7.4 mph11.9 kmh 30.27 in1025.1 mb 0.00 in0.0 mm 0.00 in0.0 mm 0.00 in0.0 mm
03:35 PM 73.6°F23.1°C 49.1°F9.5°C 42% 4.4 mph ESE7.1 kmh ESE 7.4 mph11.9 kmh 30.27 in1025.1 mb 0.00 in0.0 mm 0.00 in0.0 mm 0.00 in0.0 mm
03:40 PM 73.4°F23.0°C 48.9°F9.4°C 42% 3.8 mph SSE6.1 kmh SSE 6.0 mph9.7 kmh 30.27 in1025.1 mb 0.00 in0.0 mm 0.00 in0.0 mm 0.00 in0.0 mm
03:45 PM 73.4°F23.0°C 49.5°F9.7°C 43% 2.5 mph SSE4.0 kmh SSE 4.9 mph7.9 kmh 30.27 in1025.1 mb 0.00 in0.0 mm 0.00 in0.0 mm 0.00 in0.0 mm
03:50 PM 73.4°F23.0°C 49.5°F9.7°C 43% 1.9 mph ESE3.1 kmh ESE 4.4 mph7.1 kmh 30.27 in1025.1 mb 0.00 in0.0 mm 0.00 in0.0 mm 0.00 in0.0 mm
03:55 PM 73.0°F22.8°C 49.2°F9.6°C 43% 4.6 mph ESE7.4 kmh ESE 4.6 mph7.4 kmh 30.27 in1025.1 mb 0.00 in0.0 mm 0.00 in0.0 mm 0.00 in0.0 mm
04:00 PM 73.0°F22.8°C 49.2°F9.6°C 43% 3.8 mph ESE6.1 kmh ESE 4.9 mph7.9 kmh 30.27 in1025.1 mb 0.00 in0.0 mm 0.00 in0.0 mm 0.00 in0.0 mm
04:05 PM 73.0°F22.8°C 49.2°F9.6°C 43% 6.5 mph ESE10.5 kmh ESE 6.5 mph10.5 kmh 30.27 in1025.1 mb 0.00 in0.0 mm 0.00 in0.0 mm 0.00 in0.0 mm
04:10 PM 72.7°F22.6°C 48.9°F9.4°C 43% 7.6 mph SE12.2 kmh SE 7.6 mph12.2 kmh 30.27 in1025.1 mb 0.00 in0.0 mm 0.00 in0.0 mm 0.00 in0.0 mm
04:15 PM 72.5°F22.5°C 48.7°F9.3°C 43% 3.3 mph ESE5.3 kmh ESE 7.6 mph12.2 kmh 30.27 in1025.1 mb 0.00 in0.0 mm 0.00 in0.0 mm 0.00 in0.0 mm
04:20 PM 72.3°F22.4°C 49.2°F9.6°C 44% 7.6 mph E12.2 kmh E 7.6 mph12.2 kmh 30.27 in1025.1 mb 0.00 in0.0 mm 0.00 in0.0 mm 0.00 in0.0 mm
04:25 PM 72.1°F22.3°C 49.0°F9.4°C 44% 3.8 mph E6.1 kmh E 7.6 mph12.2 kmh 30.27 in1025.1 mb 0.00 in0.0 mm 0.00 in0.0 mm 0.00 in0.0 mm
04:30 PM 72.1°F22.3°C 49.0°F9.4°C 44% 4.6 mph ESE7.4 kmh ESE 6.0 mph9.7 kmh 30.27 in1025.1 mb 0.00 in0.0 mm 0.00 in0.0 mm 0.00 in0.0 mm
04:35 PM 72.1°F22.3°C 49.0°F9.4°C 44% 5.2 mph SE8.4 kmh SE 6.8 mph10.9 kmh 30.27 in1025.1 mb 0.00 in0.0 mm 0.00 in0.0 mm 0.00 in0.0 mm
04:40 PM 72.0°F22.2°C 48.9°F9.4°C 44% 3.8 mph SE6.1 kmh SE 6.8 mph10.9 kmh 30.27 in1025.1 mb 0.00 in0.0 mm 0.00 in0.0 mm 0.00 in0.0 mm
04:45 PM 72.0°F22.2°C 48.9°F9.4°C 44% 3.3 mph ESE5.3 kmh ESE 7.4 mph11.9 kmh 30.27 in1025.1 mb 0.00 in0.0 mm 0.00 in0.0 mm 0.00 in0.0 mm
04:50 PM 71.8°F22.1°C 48.7°F9.3°C 44% 4.4 mph E7.1 kmh E 7.4 mph11.9 kmh 30.27 in1025.1 mb 0.00 in0.0 mm 0.00 in0.0 mm 0.00 in0.0 mm
04:55 PM 71.4°F21.9°C 49.0°F9.4°C 45% 4.6 mph E7.4 kmh E 7.1 mph11.4 kmh 30.27 in1025.1 mb 0.00 in0.0 mm 0.00 in0.0 mm 0.00 in0.0 mm
05:00 PM 71.2°F21.8°C 48.8°F9.3°C 45% 2.5 mph ESE4.0 kmh ESE 7.1 mph11.4 kmh 30.27 in1025.1 mb 0.00 in0.0 mm 0.00 in0.0 mm 0.00 in0.0 mm
05:05 PM 71.1°F21.7°C 48.6°F9.2°C 45% 4.4 mph SE7.1 kmh SE 7.1 mph11.4 kmh 30.27 in1025.1 mb 0.00 in0.0 mm 0.00 in0.0 mm 0.00 in0.0 mm
05:10 PM 70.7°F21.5°C 48.3°F9.1°C 45% 4.6 mph ESE7.4 kmh ESE 7.9 mph12.7 kmh 30.27 in1025.1 mb 0.00 in0.0 mm 0.00 in0.0 mm 0.00 in0.0 mm
05:15 PM 70.7°F21.5°C 48.3°F9.1°C 45% 4.1 mph ESE6.6 kmh ESE 7.9 mph12.7 kmh 30.27 in1025.1 mb 0.00 in0.0 mm 0.00 in0.0 mm 0.00 in0.0 mm
05:20 PM 70.5°F21.4°C 48.7°F9.3°C 46% 3.0 mph ESE4.8 kmh ESE 5.2 mph8.4 kmh 30.27 in1025.1 mb 0.00 in0.0 mm 0.00 in0.0 mm 0.00 in0.0 mm
05:25 PM 70.2°F21.2°C 48.4°F9.1°C 46% 1.6 mph ESE2.6 kmh ESE 4.6 mph7.4 kmh 30.27 in1025.1 mb 0.00 in0.0 mm 0.00 in0.0 mm 0.00 in0.0 mm
05:30 PM 70.0°F21.1°C 48.2°F9.0°C 46% 3.3 mph SE5.3 kmh SE 3.8 mph6.1 kmh 30.27 in1025.1 mb 0.00 in0.0 mm 0.00 in0.0 mm 0.00 in0.0 mm
05:35 PM 70.0°F21.1°C 48.2°F9.0°C 46% 3.0 mph ESE4.8 kmh ESE 4.4 mph7.1 kmh 30.27 in1025.1 mb 0.00 in0.0 mm 0.00 in0.0 mm 0.00 in0.0 mm
05:40 PM 70.0°F21.1°C 48.2°F9.0°C 46% 2.5 mph E4.0 kmh E 4.6 mph7.4 kmh 30.27 in1025.1 mb 0.00 in0.0 mm 0.00 in0.0 mm 0.00 in0.0 mm
05:45 PM 69.8°F21.0°C 48.7°F9.3°C 47% 3.0 mph E4.8 kmh E 7.9 mph12.7 kmh 30.27 in1025.1 mb 0.00 in0.0 mm 0.00 in0.0 mm 0.00 in0.0 mm
05:50 PM 69.6°F20.9°C 48.5°F9.2°C 47% 3.5 mph E5.6 kmh E 7.9 mph12.7 kmh 30.27 in1025.1 mb 0.00 in0.0 mm 0.00 in0.0 mm 0.00 in0.0 mm
05:55 PM 69.4°F20.8°C 48.9°F9.4°C 48% 1.4 mph E2.3 kmh E 7.4 mph11.9 kmh 30.27 in1025.1 mb 0.00 in0.0 mm 0.00 in0.0 mm 0.00 in0.0 mm
06:00 PM 69.3°F20.7°C 48.2°F9.0°C 47% 3.3 mph ESE5.3 kmh ESE 4.9 mph7.9 kmh 30.27 in1025.1 mb 0.00 in0.0 mm 0.00 in0.0 mm 0.00 in0.0 mm
06:05 PM 69.3°F20.7°C 48.2°F9.0°C 47% 1.6 mph SE2.6 kmh SE 4.9 mph7.9 kmh 30.27 in1025.1 mb 0.00 in0.0 mm 0.00 in0.0 mm 0.00 in0.0 mm
06:10 PM 69.1°F20.6°C 48.0°F8.9°C 47% 7.4 mph SE11.9 kmh SE 7.4 mph11.9 kmh 30.27 in1025.1 mb 0.00 in0.0 mm 0.00 in0.0 mm 0.00 in0.0 mm
06:15 PM 68.9°F20.5°C 48.4°F9.1°C 48% 5.5 mph SE8.9 kmh SE 7.4 mph11.9 kmh 30.27 in1025.1 mb 0.00 in0.0 mm 0.00 in0.0 mm 0.00 in0.0 mm
06:20 PM 68.7°F20.4°C 48.2°F9.0°C 48% 3.5 mph SE5.6 kmh SE 7.4 mph11.9 kmh 30.27 in1025.1 mb 0.00 in0.0 mm 0.00 in0.0 mm 0.00 in0.0 mm
06:25 PM 68.7°F20.4°C 48.2°F9.0°C 48% 2.7 mph ESE4.3 kmh ESE 5.5 mph8.9 kmh 30.27 in1025.1 mb 0.00 in0.0 mm 0.00 in0.0 mm 0.00 in0.0 mm
06:30 PM 68.5°F20.3°C 48.6°F9.2°C 49% 2.5 mph E4.0 kmh E 4.6 mph7.4 kmh 30.27 in1025.1 mb 0.00 in0.0 mm 0.00 in0.0 mm 0.00 in0.0 mm
06:35 PM 68.4°F20.2°C 48.5°F9.2°C 49% 3.8 mph E6.1 kmh E 4.4 mph7.1 kmh 30.27 in1025.1 mb 0.00 in0.0 mm 0.00 in0.0 mm 0.00 in0.0 mm
06:40 PM 68.4°F20.2°C 48.5°F9.2°C 49% 3.8 mph E6.1 kmh E 4.6 mph7.4 kmh 30.27 in1025.1 mb 0.00 in0.0 mm 0.00 in0.0 mm 0.00 in0.0 mm
06:45 PM 68.0°F20.0°C 48.7°F9.3°C 50% 4.9 mph E7.9 kmh E 5.2 mph8.4 kmh 30.27 in1025.1 mb 0.00 in0.0 mm 0.00 in0.0 mm 0.00 in0.0 mm
06:50 PM 67.6°F19.8°C 48.3°F9.1°C 50% 4.1 mph E6.6 kmh E 6.0 mph9.7 kmh 30.27 in1025.1 mb 0.00 in0.0 mm 0.00 in0.0 mm 0.00 in0.0 mm
06:55 PM 67.3°F19.6°C 48.5°F9.2°C 51% 2.5 mph E4.0 kmh E 6.0 mph9.7 kmh 30.27 in1025.1 mb 0.00 in0.0 mm 0.00 in0.0 mm 0.00 in0.0 mm
07:00 PM 67.1°F19.5°C 48.9°F9.4°C 52% 1.6 mph E2.6 kmh E 5.2 mph8.4 kmh 30.27 in1025.1 mb 0.00 in0.0 mm 0.00 in0.0 mm 0.00 in0.0 mm
07:05 PM 66.9°F19.4°C 48.7°F9.3°C 52% 1.4 mph E2.3 kmh E 4.6 mph7.4 kmh 30.27 in1025.1 mb 0.00 in0.0 mm 0.00 in0.0 mm 0.00 in0.0 mm
07:10 PM 66.6°F19.2°C 48.4°F9.1°C 52% 3.8 mph ESE6.1 kmh ESE 4.6 mph7.4 kmh 30.27 in1025.1 mb 0.00 in0.0 mm 0.00 in0.0 mm 0.00 in0.0 mm
07:15 PM 66.2°F19.0°C 48.6°F9.2°C 53% 1.9 mph E3.1 kmh E 4.6 mph7.4 kmh 30.27 in1025.1 mb 0.00 in0.0 mm 0.00 in0.0 mm 0.00 in0.0 mm
07:20 PM 66.0°F18.9°C 48.9°F9.4°C 54% 2.5 mph ESE4.0 kmh ESE 6.0 mph9.7 kmh 30.27 in1025.1 mb 0.00 in0.0 mm 0.00 in0.0 mm 0.00 in0.0 mm
07:25 PM 65.8°F18.8°C 48.7°F9.3°C 54% 1.4 mph SE2.3 kmh SE 6.0 mph9.7 kmh 30.27 in1025.1 mb 0.00 in0.0 mm 0.00 in0.0 mm 0.00 in0.0 mm
07:30 PM 65.7°F18.7°C 48.6°F9.2°C 54% 2.7 mph E4.3 kmh E 4.1 mph6.6 kmh 30.27 in1025.1 mb 0.00 in0.0 mm 0.00 in0.0 mm 0.00 in0.0 mm
07:35 PM 65.5°F18.6°C 48.9°F9.4°C 55% 3.3 mph E5.3 kmh E 7.1 mph11.4 kmh 30.27 in1025.1 mb 0.00 in0.0 mm 0.00 in0.0 mm 0.00 in0.0 mm
07:40 PM 65.3°F18.5°C 48.7°F9.3°C 55% 3.0 mph E4.8 kmh E 7.1 mph11.4 kmh 30.27 in1025.1 mb 0.00 in0.0 mm 0.00 in0.0 mm 0.00 in0.0 mm
07:45 PM 65.1°F18.4°C 48.5°F9.2°C 55% 5.2 mph E8.4 kmh E 5.2 mph8.4 kmh 30.27 in1025.1 mb 0.00 in0.0 mm 0.00 in0.0 mm 0.00 in0.0 mm
07:50 PM 64.8°F18.2°C 48.2°F9.0°C 55% 3.0 mph E4.8 kmh E 6.0 mph9.7 kmh 30.30 in1026.1 mb 0.00 in0.0 mm 0.00 in0.0 mm 0.00 in0.0 mm
07:55 PM 64.6°F18.1°C 48.5°F9.2°C 56% 1.9 mph E3.1 kmh E 6.5 mph10.5 kmh 30.30 in1026.1 mb 0.00 in0.0 mm 0.00 in0.0 mm 0.00 in0.0 mm
08:00 PM 64.4°F18.0°C 47.9°F8.8°C 55% 1.4 mph E2.3 kmh E 6.5 mph10.5 kmh 30.30 in1026.1 mb 0.00 in0.0 mm 0.00 in0.0 mm 0.00 in0.0 mm
08:05 PM 64.2°F17.9°C 48.2°F9.0°C 56% 4.6 mph E7.4 kmh E 4.6 mph7.4 kmh 30.30 in1026.1 mb 0.00 in0.0 mm 0.00 in0.0 mm 0.00 in0.0 mm
08:10 PM 63.9°F17.7°C 47.9°F8.8°C 56% 1.6 mph ESE2.6 kmh ESE 4.6 mph7.4 kmh 30.30 in1026.1 mb 0.00 in0.0 mm 0.00 in0.0 mm 0.00 in0.0 mm
08:15 PM 63.7°F17.6°C 48.2°F9.0°C 57% 3.3 mph E5.3 kmh E 5.2 mph8.4 kmh 30.30 in1026.1 mb 0.00 in0.0 mm 0.00 in0.0 mm 0.00 in0.0 mm
08:20 PM 63.5°F17.5°C 48.5°F9.2°C 58% 1.4 mph E2.3 kmh E 5.7 mph9.2 kmh 30.30 in1026.1 mb 0.00 in0.0 mm 0.00 in0.0 mm 0.00 in0.0 mm
08:25 PM 63.1°F17.3°C 48.1°F8.9°C 58% Calm Calm 7.6 mph12.2 kmh 30.30 in1026.1 mb 0.00 in0.0 mm 0.00 in0.0 mm 0.00 in0.0 mm
08:30 PM 63.1°F17.3°C 48.1°F8.9°C 58% 4.4 mph E7.1 kmh E 7.6 mph12.2 kmh 30.30 in1026.1 mb 0.00 in0.0 mm 0.00 in0.0 mm 0.00 in0.0 mm
08:35 PM 63.0°F17.2°C 48.4°F9.1°C 59% 1.6 mph E2.6 kmh E 4.6 mph7.4 kmh 30.30 in1026.1 mb 0.00 in0.0 mm 0.00 in0.0 mm 0.00 in0.0 mm
08:40 PM 62.8°F17.1°C 48.2°F9.0°C 59% 7.4 mph E11.9 kmh E 7.4 mph11.9 kmh 30.30 in1026.1 mb 0.00 in0.0 mm 0.00 in0.0 mm 0.00 in0.0 mm
08:45 PM 62.6°F17.0°C 49.0°F9.4°C 61% 1.4 mph E2.3 kmh E 7.4 mph11.9 kmh 30.30 in1026.1 mb 0.00 in0.0 mm 0.00 in0.0 mm 0.00 in0.0 mm
08:50 PM 62.4°F16.9°C 49.2°F9.6°C 62% 4.6 mph E7.4 kmh E 5.7 mph9.2 kmh 30.30 in1026.1 mb 0.00 in0.0 mm 0.00 in0.0 mm 0.00 in0.0 mm
08:55 PM 62.4°F16.9°C 49.2°F9.6°C 62% 1.1 mph E1.8 kmh E 5.7 mph9.2 kmh 30.30 in1026.1 mb 0.00 in0.0 mm 0.00 in0.0 mm 0.00 in0.0 mm
09:00 PM 62.4°F16.9°C 49.2°F9.6°C 62% 3.0 mph E4.8 kmh E 4.6 mph7.4 kmh 30.30 in1026.1 mb 0.00 in0.0 mm 0.00 in0.0 mm 0.00 in0.0 mm
09:05 PM 62.2°F16.8°C 49.9°F9.9°C 64% 3.0 mph E4.8 kmh E 3.8 mph6.1 kmh 30.30 in1026.1 mb 0.00 in0.0 mm 0.00 in0.0 mm 0.00 in0.0 mm
09:10 PM 62.1°F16.7°C 49.7°F9.8°C 64% 2.5 mph E4.0 kmh E 3.0 mph4.8 kmh 30.30 in1026.1 mb 0.00 in0.0 mm 0.00 in0.0 mm 0.00 in0.0 mm
09:15 PM 62.1°F16.7°C 50.2°F10.1°C 65% 2.5 mph E4.0 kmh E 3.0 mph4.8 kmh 30.30 in1026.1 mb 0.00 in0.0 mm 0.00 in0.0 mm 0.00 in0.0 mm
09:20 PM 61.9°F16.6°C 50.0°F10.0°C 65% 1.6 mph E2.6 kmh E 3.8 mph6.1 kmh 30.30 in1026.1 mb 0.00 in0.0 mm 0.00 in0.0 mm 0.00 in0.0 mm
09:25 PM 61.9°F16.6°C 50.0°F10.0°C 65% 1.9 mph E3.1 kmh E 3.8 mph6.1 kmh 30.30 in1026.1 mb 0.00 in0.0 mm 0.00 in0.0 mm 0.00 in0.0 mm
09:30 PM 61.7°F16.5°C 50.2°F10.1°C 66% Calm Calm 3.0 mph4.8 kmh 30.30 in1026.1 mb 0.00 in0.0 mm 0.00 in0.0 mm 0.00 in0.0 mm
09:35 PM 61.7°F16.5°C 50.6°F10.3°C 67% 1.9 mph E3.1 kmh E 2.7 mph4.3 kmh 30.33 in1027.1 mb 0.00 in0.0 mm 0.00 in0.0 mm 0.00 in0.0 mm
09:40 PM 61.7°F16.5°C 50.6°F10.3°C 67% 1.9 mph E3.1 kmh E 2.7 mph4.3 kmh 30.33 in1027.1 mb 0.00 in0.0 mm 0.00 in0.0 mm 0.00 in0.0 mm
09:45 PM 61.5°F16.4°C 50.5°F10.3°C 67% 1.1 mph ENE1.8 kmh ENE 2.5 mph4.0 kmh 30.33 in1027.1 mb 0.00 in0.0 mm 0.00 in0.0 mm 0.00 in0.0 mm
09:50 PM 61.3°F16.3°C 49.9°F9.9°C 66% 2.5 mph ENE4.0 kmh ENE 2.5 mph4.0 kmh 30.30 in1026.1 mb 0.00 in0.0 mm 0.00 in0.0 mm 0.00 in0.0 mm
09:55 PM 61.3°F16.3°C 50.3°F10.2°C 67% Calm Calm 3.3 mph5.3 kmh 30.30 in1026.1 mb 0.00 in0.0 mm 0.00 in0.0 mm 0.00 in0.0 mm
10:00 PM 61.3°F16.3°C 50.3°F10.2°C 67% 2.5 mph E4.0 kmh E 3.3 mph5.3 kmh 30.30 in1026.1 mb 0.00 in0.0 mm 0.00 in0.0 mm 0.00 in0.0 mm
10:05 PM 61.2°F16.2°C 50.1°F10.1°C 67% 1.6 mph E2.6 kmh E 2.5 mph4.0 kmh 30.33 in1027.1 mb 0.00 in0.0 mm 0.00 in0.0 mm 0.00 in0.0 mm
10:10 PM 61.2°F16.2°C 50.1°F10.1°C 67% 2.7 mph E4.3 kmh E 3.8 mph6.1 kmh 30.33 in1027.1 mb 0.00 in0.0 mm 0.00 in0.0 mm 0.00 in0.0 mm
10:15 PM 61.0°F16.1°C 49.9°F9.9°C 67% 1.1 mph E1.8 kmh E 3.8 mph6.1 kmh 30.33 in1027.1 mb 0.00 in0.0 mm 0.00 in0.0 mm 0.00 in0.0 mm
10:20 PM 61.0°F16.1°C 49.9°F9.9°C 67% Calm Calm 3.3 mph5.3 kmh 30.33 in1027.1 mb 0.00 in0.0 mm 0.00 in0.0 mm 0.00 in0.0 mm
10:25 PM 61.0°F16.1°C 50.3°F10.2°C 68% Calm Calm 2.7 mph4.3 kmh 30.33 in1027.1 mb 0.00 in0.0 mm 0.00 in0.0 mm 0.00 in0.0 mm
10:30 PM 60.8°F16.0°C 50.2°F10.1°C 68% 1.9 mph E3.1 kmh E 2.7 mph4.3 kmh 30.33 in1027.1 mb 0.00 in0.0 mm 0.00 in0.0 mm 0.00 in0.0 mm
10:35 PM 60.6°F15.9°C 50.0°F10.0°C 68% Calm Calm 2.5 mph4.0 kmh 30.33 in1027.1 mb 0.00 in0.0 mm 0.00 in0.0 mm 0.00 in0.0 mm
10:40 PM 60.6°F15.9°C 50.0°F10.0°C 68% Calm Calm 1.9 mph3.1 kmh 30.33 in1027.1 mb 0.00 in0.0 mm 0.00 in0.0 mm 0.00 in0.0 mm
10:45 PM 60.4°F15.8°C 49.8°F9.9°C 68% Calm Calm 1.4 mph2.3 kmh 30.33 in1027.1 mb 0.00 in0.0 mm 0.00 in0.0 mm 0.00 in0.0 mm
10:50 PM 60.4°F15.8°C 50.2°F10.1°C 69% 1.6 mph E2.6 kmh E 1.6 mph2.6 kmh 30.33 in1027.1 mb 0.00 in0.0 mm 0.00 in0.0 mm 0.00 in0.0 mm
10:55 PM 60.4°F15.8°C 50.2°F10.1°C 69% Calm Calm 1.6 mph2.6 kmh 30.33 in1027.1 mb 0.00 in0.0 mm 0.00 in0.0 mm 0.00 in0.0 mm
11:00 PM 60.3°F15.7°C 50.0°F10.0°C 69% Calm Calm 1.4 mph2.3 kmh 30.33 in1027.1 mb 0.00 in0.0 mm 0.00 in0.0 mm 0.00 in0.0 mm
11:05 PM 60.3°F15.7°C 50.0°F10.0°C 69% Calm Calm 1.9 mph3.1 kmh 30.33 in1027.1 mb 0.00 in0.0 mm 0.00 in0.0 mm 0.00 in0.0 mm
11:10 PM 60.3°F15.7°C 50.4°F10.2°C 70% Calm Calm 1.9 mph3.1 kmh 30.33 in1027.1 mb 0.00 in0.0 mm 0.00 in0.0 mm 0.00 in0.0 mm
11:15 PM 60.1°F15.6°C 50.3°F10.2°C 70% Calm Calm -- 30.33 in1027.1 mb 0.00 in0.0 mm 0.00 in0.0 mm 0.00 in0.0 mm
11:20 PM 59.9°F15.5°C 50.1°F10.1°C 70% Calm Calm -- 30.33 in1027.1 mb 0.00 in0.0 mm 0.00 in0.0 mm 0.00 in0.0 mm
11:25 PM 59.7°F15.4°C 49.9°F9.9°C 70% Calm Calm -- 30.33 in1027.1 mb 0.00 in0.0 mm 0.00 in0.0 mm 0.00 in0.0 mm
11:30 PM 59.7°F15.4°C 49.9°F9.9°C 70% Calm Calm 1.1 mph1.8 kmh 30.33 in1027.1 mb 0.00 in0.0 mm 0.00 in0.0 mm 0.00 in0.0 mm
11:35 PM 59.4°F15.2°C 50.0°F10.0°C 71% Calm Calm 1.1 mph1.8 kmh 30.33 in1027.1 mb 0.00 in0.0 mm 0.00 in0.0 mm 0.00 in0.0 mm
11:40 PM 59.4°F15.2°C 50.0°F10.0°C 71% Calm Calm 1.6 mph2.6 kmh 30.33 in1027.1 mb 0.00 in0.0 mm 0.00 in0.0 mm 0.00 in0.0 mm
11:45 PM 59.2°F15.1°C 49.8°F9.9°C 71% Calm Calm 1.6 mph2.6 kmh 30.33 in1027.1 mb 0.00 in0.0 mm 0.00 in0.0 mm 0.00 in0.0 mm
11:50 PM 59.4°F15.2°C 50.0°F10.0°C 71% Calm Calm 1.1 mph1.8 kmh 30.33 in1027.1 mb 0.00 in0.0 mm 0.00 in0.0 mm 0.00 in0.0 mm
11:55 PM 59.2°F15.1°C 49.8°F9.9°C 71% Calm Calm -- 30.33 in1027.1 mb 0.00 in0.0 mm 0.00 in0.0 mm 0.00 in0.0 mm